sensor_id;sensor_type;location;lat;lon;timestamp;temperature;humidity
51811;DHT22;52468;40.116;18.296;2022-12-05T00:00:54;13.50;84.60
51811;DHT22;52468;40.116;18.296;2022-12-05T00:03:21;13.50;84.60
51811;DHT22;52468;40.116;18.296;2022-12-05T00:05:49;13.40;84.70
51811;DHT22;52468;40.116;18.296;2022-12-05T00:08:17;13.40;84.80
51811;DHT22;52468;40.116;18.296;2022-12-05T00:10:44;13.30;85.00
51811;DHT22;52468;40.116;18.296;2022-12-05T00:13:12;13.30;85.10
51811;DHT22;52468;40.116;18.296;2022-12-05T00:15:39;13.30;85.00
51811;DHT22;52468;40.116;18.296;2022-12-05T00:18:07;13.20;85.00
51811;DHT22;52468;40.116;18.296;2022-12-05T00:20:35;13.20;85.30
51811;DHT22;52468;40.116;18.296;2022-12-05T00:23:02;13.20;85.50
51811;DHT22;52468;40.116;18.296;2022-12-05T00:25:30;13.20;85.80
51811;DHT22;52468;40.116;18.296;2022-12-05T00:27:57;13.20;85.70
51811;DHT22;52468;40.116;18.296;2022-12-05T00:30:25;13.20;85.40
51811;DHT22;52468;40.116;18.296;2022-12-05T00:32:53;13.10;85.40
51811;DHT22;52468;40.116;18.296;2022-12-05T00:35:20;13.10;85.70
51811;DHT22;52468;40.116;18.296;2022-12-05T00:37:48;13.10;85.50
51811;DHT22;52468;40.116;18.296;2022-12-05T00:40:16;13.00;85.70
51811;DHT22;52468;40.116;18.296;2022-12-05T00:42:43;13.00;85.80
51811;DHT22;52468;40.116;18.296;2022-12-05T00:45:14;13.00;85.60
51811;DHT22;52468;40.116;18.296;2022-12-05T00:47:41;13.00;85.20
51811;DHT22;52468;40.116;18.296;2022-12-05T00:50:09;12.90;85.10
51811;DHT22;52468;40.116;18.296;2022-12-05T00:52:37;12.80;85.30
51811;DHT22;52468;40.116;18.296;2022-12-05T00:55:04;12.80;85.60
51811;DHT22;52468;40.116;18.296;2022-12-05T00:57:32;12.80;85.40
51811;DHT22;52468;40.116;18.296;2022-12-05T01:00:00;12.80;85.50
51811;DHT22;52468;40.116;18.296;2022-12-05T01:02:29;12.80;85.50
51811;DHT22;52468;40.116;18.296;2022-12-05T01:04:56;12.80;85.30
51811;DHT22;52468;40.116;18.296;2022-12-05T01:07:24;12.70;85.20
51811;DHT22;52468;40.116;18.296;2022-12-05T01:09:51;12.70;85.20
51811;DHT22;52468;40.116;18.296;2022-12-05T01:12:19;12.70;85.40
51811;DHT22;52468;40.116;18.296;2022-12-05T01:14:46;12.60;85.60
51811;DHT22;52468;40.116;18.296;2022-12-05T01:17:14;12.60;85.50
51811;DHT22;52468;40.116;18.296;2022-12-05T01:19:42;12.60;85.20
51811;DHT22;52468;40.116;18.296;2022-12-05T01:22:09;12.60;85.40
51811;DHT22;52468;40.116;18.296;2022-12-05T01:24:37;12.60;85.20
51811;DHT22;52468;40.116;18.296;2022-12-05T01:27:04;12.50;85.40
51811;DHT22;52468;40.116;18.296;2022-12-05T01:29:32;12.60;85.20
51811;DHT22;52468;40.116;18.296;2022-12-05T01:32:00;12.60;85.40
51811;DHT22;52468;40.116;18.296;2022-12-05T01:34:27;12.60;85.30
51811;DHT22;52468;40.116;18.296;2022-12-05T01:36:55;12.60;85.10
51811;DHT22;52468;40.116;18.296;2022-12-05T01:39:23;12.50;85.50
51811;DHT22;52468;40.116;18.296;2022-12-05T01:41:50;12.50;85.50
51811;DHT22;52468;40.116;18.296;2022-12-05T01:46:49;12.50;85.50
51811;DHT22;52468;40.116;18.296;2022-12-05T01:49:27;12.50;85.50
51811;DHT22;52468;40.116;18.296;2022-12-05T01:51:58;12.50;85.90
51811;DHT22;52468;40.116;18.296;2022-12-05T01:54:27;12.60;85.20
51811;DHT22;52468;40.116;18.296;2022-12-05T01:56:57;12.50;85.00
51811;DHT22;52468;40.116;18.296;2022-12-05T01:59:26;12.50;84.80
51811;DHT22;52468;40.116;18.296;2022-12-05T02:01:54;12.40;84.90
51811;DHT22;52468;40.116;18.296;2022-12-05T02:04:21;12.30;85.10
51811;DHT22;52468;40.116;18.296;2022-12-05T02:06:50;12.30;84.30
51811;DHT22;52468;40.116;18.296;2022-12-05T02:09:18;12.30;84.10
51811;DHT22;52468;40.116;18.296;2022-12-05T02:11:50;12.20;84.30
51811;DHT22;52468;40.116;18.296;2022-12-05T02:14:23;12.20;84.60
51811;DHT22;52468;40.116;18.296;2022-12-05T02:19:30;12.10;85.20
51811;DHT22;52468;40.116;18.296;2022-12-05T02:40:09;12.00;85.20
51811;DHT22;52468;40.116;18.296;2022-12-05T02:42:45;12.00;85.60
51811;DHT22;52468;40.116;18.296;2022-12-05T02:45:16;12.00;85.60
51811;DHT22;52468;40.116;18.296;2022-12-05T02:47:48;12.00;85.50
51811;DHT22;52468;40.116;18.296;2022-12-05T02:50:24;12.00;85.40
51811;DHT22;52468;40.116;18.296;2022-12-05T02:52:55;12.00;85.40
51811;DHT22;52468;40.116;18.296;2022-12-05T02:55:24;11.90;85.70
51811;DHT22;52468;40.116;18.296;2022-12-05T02:57:54;11.90;85.80
51811;DHT22;52468;40.116;18.296;2022-12-05T03:00:23;11.90;85.60
51811;DHT22;52468;40.116;18.296;2022-12-05T03:02:52;11.90;85.50
51811;DHT22;52468;40.116;18.296;2022-12-05T03:05:26;11.90;84.90
51811;DHT22;52468;40.116;18.296;2022-12-05T03:07:56;11.80;85.10
51811;DHT22;52468;40.116;18.296;2022-12-05T03:10:24;11.80;85.30
51811;DHT22;52468;40.116;18.296;2022-12-05T03:12:55;11.80;85.30
51811;DHT22;52468;40.116;18.296;2022-12-05T03:15:27;11.80;85.20
51811;DHT22;52468;40.116;18.296;2022-12-05T03:18:31;11.80;85.40
51811;DHT22;52468;40.116;18.296;2022-12-05T03:23:25;11.80;85.20
51811;DHT22;52468;40.116;18.296;2022-12-05T03:28:29;11.80;84.40
51811;DHT22;52468;40.116;18.296;2022-12-05T03:31:01;11.70;84.70
51811;DHT22;52468;40.116;18.296;2022-12-05T03:33:33;11.60;85.00
51811;DHT22;52468;40.116;18.296;2022-12-05T03:36:07;11.50;85.00
51811;DHT22;52468;40.116;18.296;2022-12-05T03:38:39;11.50;84.90
51811;DHT22;52468;40.116;18.296;2022-12-05T03:41:13;11.40;84.70
51811;DHT22;52468;40.116;18.296;2022-12-05T03:43:53;11.40;84.80
51811;DHT22;52468;40.116;18.296;2022-12-05T03:46:28;11.30;84.90
51811;DHT22;52468;40.116;18.296;2022-12-05T03:51:48;11.30;85.30
51811;DHT22;52468;40.116;18.296;2022-12-05T03:54:19;11.30;85.40
51811;DHT22;52468;40.116;18.296;2022-12-05T03:56:50;11.30;85.20
51811;DHT22;52468;40.116;18.296;2022-12-05T03:59:26;11.30;85.30
51811;DHT22;52468;40.116;18.296;2022-12-05T04:01:54;11.30;85.30
51811;DHT22;52468;40.116;18.296;2022-12-05T04:04:31;11.30;85.10
51811;DHT22;52468;40.116;18.296;2022-12-05T04:07:01;11.20;84.80
51811;DHT22;52468;40.116;18.296;2022-12-05T04:09:31;11.20;84.90
51811;DHT22;52468;40.116;18.296;2022-12-05T04:12:02;11.20;85.00
51811;DHT22;52468;40.116;18.296;2022-12-05T04:14:34;11.20;84.80
51811;DHT22;52468;40.116;18.296;2022-12-05T04:17:03;11.20;84.80
51811;DHT22;52468;40.116;18.296;2022-12-05T04:19:39;11.10;84.80
51811;DHT22;52468;40.116;18.296;2022-12-05T04:22:27;11.10;85.00
51811;DHT22;52468;40.116;18.296;2022-12-05T04:24:56;11.10;84.70
51811;DHT22;52468;40.116;18.296;2022-12-05T04:36:15;11.10;84.10
51811;DHT22;52468;40.116;18.296;2022-12-05T04:38:48;11.10;84.20
51811;DHT22;52468;40.116;18.296;2022-12-05T04:41:19;11.00;84.40
51811;DHT22;52468;40.116;18.296;2022-12-05T04:43:49;11.00;84.50
51811;DHT22;52468;40.116;18.296;2022-12-05T04:46:18;11.00;84.10
51811;DHT22;52468;40.116;18.296;2022-12-05T04:48:49;11.00;84.10
51811;DHT22;52468;40.116;18.296;2022-12-05T04:51:21;11.00;84.20
51811;DHT22;52468;40.116;18.296;2022-12-05T04:53:53;11.00;84.30
51811;DHT22;52468;40.116;18.296;2022-12-05T04:56:23;11.00;84.40
51811;DHT22;52468;40.116;18.296;2022-12-05T04:58:53;10.90;84.50
51811;DHT22;52468;40.116;18.296;2022-12-05T05:01:34;11.00;83.90
51811;DHT22;52468;40.116;18.296;2022-12-05T05:04:10;11.00;83.90
51811;DHT22;52468;40.116;18.296;2022-12-05T05:06:39;10.90;84.00
51811;DHT22;52468;40.116;18.296;2022-12-05T05:09:08;10.80;84.30
51811;DHT22;52468;40.116;18.296;2022-12-05T05:11:36;10.80;84.50
51811;DHT22;52468;40.116;18.296;2022-12-05T05:14:04;10.60;84.50
51811;DHT22;52468;40.116;18.296;2022-12-05T05:16:33;10.60;84.50
51811;DHT22;52468;40.116;18.296;2022-12-05T05:19:01;10.60;84.20
51811;DHT22;52468;40.116;18.296;2022-12-05T05:21:30;10.60;84.20
51811;DHT22;52468;40.116;18.296;2022-12-05T05:23:57;10.60;84.50
51811;DHT22;52468;40.116;18.296;2022-12-05T05:26:26;10.60;84.80
51811;DHT22;52468;40.116;18.296;2022-12-05T05:28:54;10.50;84.90
51811;DHT22;52468;40.116;18.296;2022-12-05T05:31:21;10.50;85.10
51811;DHT22;52468;40.116;18.296;2022-12-05T05:33:50;10.60;85.30
51811;DHT22;52468;40.116;18.296;2022-12-05T05:36:18;10.60;85.30
51811;DHT22;52468;40.116;18.296;2022-12-05T05:38:50;10.70;85.50
51811;DHT22;52468;40.116;18.296;2022-12-05T05:41:22;10.70;84.70
51811;DHT22;52468;40.116;18.296;2022-12-05T05:43:50;10.70;84.60
51811;DHT22;52468;40.116;18.296;2022-12-05T05:46:18;10.70;84.80
51811;DHT22;52468;40.116;18.296;2022-12-05T05:48:47;10.70;85.30
51811;DHT22;52468;40.116;18.296;2022-12-05T05:51:14;10.60;85.30
51811;DHT22;52468;40.116;18.296;2022-12-05T05:53:42;10.60;85.00
51811;DHT22;52468;40.116;18.296;2022-12-05T05:56:12;10.60;85.00
51811;DHT22;52468;40.116;18.296;2022-12-05T05:58:42;10.50;85.00
51811;DHT22;52468;40.116;18.296;2022-12-05T06:03:37;10.40;84.60
51811;DHT22;52468;40.116;18.296;2022-12-05T06:06:06;10.40;84.80
51811;DHT22;52468;40.116;18.296;2022-12-05T06:08:34;10.40;85.10
51811;DHT22;52468;40.116;18.296;2022-12-05T06:11:06;10.50;85.30
51811;DHT22;52468;40.116;18.296;2022-12-05T06:13:34;10.50;84.90
51811;DHT22;52468;40.116;18.296;2022-12-05T06:16:03;10.60;84.40
51811;DHT22;52468;40.116;18.296;2022-12-05T06:18:31;10.60;84.00
51811;DHT22;52468;40.116;18.296;2022-12-05T06:20:59;10.70;83.90
51811;DHT22;52468;40.116;18.296;2022-12-05T06:23:26;10.80;83.80
51811;DHT22;52468;40.116;18.296;2022-12-05T06:25:54;10.90;83.50
51811;DHT22;52468;40.116;18.296;2022-12-05T06:28:23;10.90;83.90
51811;DHT22;52468;40.116;18.296;2022-12-05T06:30:52;10.90;84.10
51811;DHT22;52468;40.116;18.296;2022-12-05T06:33:19;11.00;84.00
51811;DHT22;52468;40.116;18.296;2022-12-05T06:35:47;11.10;84.00
51811;DHT22;52468;40.116;18.296;2022-12-05T06:38:15;11.30;84.10
51811;DHT22;52468;40.116;18.296;2022-12-05T06:40:43;11.50;84.10
51811;DHT22;52468;40.116;18.296;2022-12-05T06:43:11;11.60;84.20
51811;DHT22;52468;40.116;18.296;2022-12-05T06:45:39;11.80;84.10
51811;DHT22;52468;40.116;18.296;2022-12-05T06:48:06;11.80;83.90
51811;DHT22;52468;40.116;18.296;2022-12-05T06:50:34;11.80;84.20
51811;DHT22;52468;40.116;18.296;2022-12-05T06:53:01;12.00;84.30
51811;DHT22;52468;40.116;18.296;2022-12-05T06:55:29;12.10;84.20
51811;DHT22;52468;40.116;18.296;2022-12-05T06:57:57;12.20;83.90
51811;DHT22;52468;40.116;18.296;2022-12-05T07:00:24;12.20;83.80
51811;DHT22;52468;40.116;18.296;2022-12-05T07:03:10;12.30;83.90
51811;DHT22;52468;40.116;18.296;2022-12-05T07:05:37;12.30;83.80
51811;DHT22;52468;40.116;18.296;2022-12-05T07:08:05;12.30;83.80
51811;DHT22;52468;40.116;18.296;2022-12-05T07:10:33;12.40;84.40
51811;DHT22;52468;40.116;18.296;2022-12-05T07:13:00;12.50;84.60
51811;DHT22;52468;40.116;18.296;2022-12-05T07:15:28;12.80;85.00
51811;DHT22;52468;40.116;18.296;2022-12-05T07:17:55;13.10;85.10
51811;DHT22;52468;40.116;18.296;2022-12-05T07:20:23;13.20;84.70
51811;DHT22;52468;40.116;18.296;2022-12-05T07:22:52;13.30;84.50
51811;DHT22;52468;40.116;18.296;2022-12-05T07:25:19;13.30;84.70
51811;DHT22;52468;40.116;18.296;2022-12-05T07:27:49;13.30;84.40
51811;DHT22;52468;40.116;18.296;2022-12-05T07:30:16;13.40;84.80
51811;DHT22;52468;40.116;18.296;2022-12-05T07:32:44;13.50;84.90
51811;DHT22;52468;40.116;18.296;2022-12-05T07:35:12;13.70;84.70
51811;DHT22;52468;40.116;18.296;2022-12-05T07:37:39;13.70;84.60
51811;DHT22;52468;40.116;18.296;2022-12-05T07:40:07;13.80;84.50
51811;DHT22;52468;40.116;18.296;2022-12-05T07:42:35;13.90;84.90
51811;DHT22;52468;40.116;18.296;2022-12-05T07:45:02;14.10;85.00
51811;DHT22;52468;40.116;18.296;2022-12-05T07:47:30;14.20;84.90
51811;DHT22;52468;40.116;18.296;2022-12-05T07:49:58;14.20;85.00
51811;DHT22;52468;40.116;18.296;2022-12-05T07:52:26;14.40;85.20
51811;DHT22;52468;40.116;18.296;2022-12-05T07:54:54;14.50;85.10
51811;DHT22;52468;40.116;18.296;2022-12-05T07:57:22;14.60;85.20
51811;DHT22;52468;40.116;18.296;2022-12-05T07:59:49;14.80;85.40
51811;DHT22;52468;40.116;18.296;2022-12-05T08:02:17;15.00;85.40
51811;DHT22;52468;40.116;18.296;2022-12-05T08:04:45;15.20;85.30
51811;DHT22;52468;40.116;18.296;2022-12-05T08:07:12;15.40;85.20
51811;DHT22;52468;40.116;18.296;2022-12-05T08:09:40;15.50;85.30
51811;DHT22;52468;40.116;18.296;2022-12-05T08:12:08;15.60;85.20
51811;DHT22;52468;40.116;18.296;2022-12-05T08:14:35;15.70;84.60
51811;DHT22;52468;40.116;18.296;2022-12-05T08:17:03;15.70;84.50
51811;DHT22;52468;40.116;18.296;2022-12-05T08:19:31;15.80;84.80
51811;DHT22;52468;40.116;18.296;2022-12-05T08:21:58;16.00;85.30
51811;DHT22;52468;40.116;18.296;2022-12-05T08:24:26;16.10;85.40
51811;DHT22;52468;40.116;18.296;2022-12-05T08:26:54;16.30;85.50
51811;DHT22;52468;40.116;18.296;2022-12-05T08:29:21;16.50;85.40
51811;DHT22;52468;40.116;18.296;2022-12-05T08:31:49;16.60;85.20
51811;DHT22;52468;40.116;18.296;2022-12-05T08:34:18;16.80;85.10
51811;DHT22;52468;40.116;18.296;2022-12-05T08:36:46;16.90;85.00
51811;DHT22;52468;40.116;18.296;2022-12-05T08:39:14;17.00;84.10
51811;DHT22;52468;40.116;18.296;2022-12-05T08:41:43;17.10;84.80
51811;DHT22;52468;40.116;18.296;2022-12-05T08:44:11;17.10;84.90
51811;DHT22;52468;40.116;18.296;2022-12-05T08:46:44;17.30;85.00
51811;DHT22;52468;40.116;18.296;2022-12-05T08:49:12;17.40;85.00
51811;DHT22;52468;40.116;18.296;2022-12-05T08:51:40;17.50;84.80
51811;DHT22;52468;40.116;18.296;2022-12-05T08:54:08;17.50;84.50
51811;DHT22;52468;40.116;18.296;2022-12-05T08:56:36;17.60;84.70
51811;DHT22;52468;40.116;18.296;2022-12-05T08:59:05;17.70;84.40
51811;DHT22;52468;40.116;18.296;2022-12-05T09:01:33;17.70;84.40
51811;DHT22;52468;40.116;18.296;2022-12-05T09:04:03;17.60;83.60
51811;DHT22;52468;40.116;18.296;2022-12-05T09:06:31;17.70;84.70
51811;DHT22;52468;40.116;18.296;2022-12-05T09:09:02;17.80;84.50
51811;DHT22;52468;40.116;18.296;2022-12-05T09:11:32;17.80;84.50
51811;DHT22;52468;40.116;18.296;2022-12-05T09:14:00;18.00;84.90
51811;DHT22;52468;40.116;18.296;2022-12-05T09:16:29;18.10;84.90
51811;DHT22;52468;40.116;18.296;2022-12-05T09:19:01;18.10;84.50
51811;DHT22;52468;40.116;18.296;2022-12-05T09:21:29;18.10;83.60
51811;DHT22;52468;40.116;18.296;2022-12-05T09:23:58;18.10;84.00
51811;DHT22;52468;40.116;18.296;2022-12-05T09:26:27;18.10;84.10
51811;DHT22;52468;40.116;18.296;2022-12-05T09:28:56;18.30;84.40
51811;DHT22;52468;40.116;18.296;2022-12-05T09:31:24;18.30;84.10
51811;DHT22;52468;40.116;18.296;2022-12-05T09:33:53;18.40;84.10
51811;DHT22;52468;40.116;18.296;2022-12-05T09:36:22;18.50;83.90
51811;DHT22;52468;40.116;18.296;2022-12-05T09:38:50;18.50;84.50
51811;DHT22;52468;40.116;18.296;2022-12-05T09:41:23;18.60;84.30
51811;DHT22;52468;40.116;18.296;2022-12-05T09:44:18;18.60;84.30
51811;DHT22;52468;40.116;18.296;2022-12-05T09:49:33;18.80;84.30
51811;DHT22;52468;40.116;18.296;2022-12-05T09:52:07;18.90;84.60
51811;DHT22;52468;40.116;18.296;2022-12-05T09:54:37;19.00;84.20
51811;DHT22;52468;40.116;18.296;2022-12-05T09:57:05;19.00;83.60
51811;DHT22;52468;40.116;18.296;2022-12-05T09:59:32;19.10;83.20
51811;DHT22;52468;40.116;18.296;2022-12-05T10:02:03;19.10;82.90
51811;DHT22;52468;40.116;18.296;2022-12-05T10:10:01;19.20;84.10
51811;DHT22;52468;40.116;18.296;2022-12-05T10:18:09;19.40;82.60
51811;DHT22;52468;40.116;18.296;2022-12-05T10:20:49;19.50;83.10
51811;DHT22;52468;40.116;18.296;2022-12-05T10:26:24;19.80;81.50
51811;DHT22;52468;40.116;18.296;2022-12-05T10:31:39;20.10;82.10
51811;DHT22;52468;40.116;18.296;2022-12-05T10:34:14;20.00;82.90
51811;DHT22;52468;40.116;18.296;2022-12-05T10:36:44;19.90;81.40
51811;DHT22;52468;40.116;18.296;2022-12-05T10:39:16;19.90;81.60
51811;DHT22;52468;40.116;18.296;2022-12-05T10:41:43;20.00;79.30
51811;DHT22;52468;40.116;18.296;2022-12-05T10:44:11;20.00;81.80
51811;DHT22;52468;40.116;18.296;2022-12-05T10:46:39;20.20;82.30
51811;DHT22;52468;40.116;18.296;2022-12-05T10:49:10;20.30;80.90
51811;DHT22;52468;40.116;18.296;2022-12-05T10:51:38;20.20;81.00
51811;DHT22;52468;40.116;18.296;2022-12-05T10:57:04;20.10;77.50
51811;DHT22;52468;40.116;18.296;2022-12-05T10:59:46;20.00;80.00
51811;DHT22;52468;40.116;18.296;2022-12-05T11:02:35;19.80;79.50
51811;DHT22;52468;40.116;18.296;2022-12-05T11:05:03;19.60;78.10
51811;DHT22;52468;40.116;18.296;2022-12-05T11:07:32;19.70;78.70
51811;DHT22;52468;40.116;18.296;2022-12-05T11:10:00;19.80;76.80
51811;DHT22;52468;40.116;18.296;2022-12-05T11:15:01;20.20;79.80
51811;DHT22;52468;40.116;18.296;2022-12-05T11:17:36;20.40;78.70
51811;DHT22;52468;40.116;18.296;2022-12-05T11:27:55;21.10;72.00
51811;DHT22;52468;40.116;18.296;2022-12-05T11:30:26;21.20;73.90
51811;DHT22;52468;40.116;18.296;2022-12-05T11:33:14;21.20;74.70
51811;DHT22;52468;40.116;18.296;2022-12-05T11:35:45;21.20;75.70
51811;DHT22;52468;40.116;18.296;2022-12-05T11:38:13;21.20;76.00
51811;DHT22;52468;40.116;18.296;2022-12-05T11:45:56;21.00;77.20
51811;DHT22;52468;40.116;18.296;2022-12-05T12:04:29;21.00;70.30
51811;DHT22;52468;40.116;18.296;2022-12-05T12:12:18;21.00;73.90
51811;DHT22;52468;40.116;18.296;2022-12-05T12:14:55;21.00;71.90
51811;DHT22;52468;40.116;18.296;2022-12-05T12:17:48;21.10;70.60
51811;DHT22;52468;40.116;18.296;2022-12-05T12:26:11;20.60;67.70
51811;DHT22;52468;40.116;18.296;2022-12-05T12:46:48;20.80;70.40
51811;DHT22;52468;40.116;18.296;2022-12-05T12:49:31;20.80;70.10
51811;DHT22;52468;40.116;18.296;2022-12-05T12:52:08;20.80;71.20
51811;DHT22;52468;40.116;18.296;2022-12-05T13:00:24;20.50;69.90
51811;DHT22;52468;40.116;18.296;2022-12-05T13:05:29;20.30;70.90
51811;DHT22;52468;40.116;18.296;2022-12-05T13:10:45;20.10;71.30
51811;DHT22;52468;40.116;18.296;2022-12-05T13:13:20;20.20;71.90
51811;DHT22;52468;40.116;18.296;2022-12-05T13:15:50;20.10;71.40
51811;DHT22;52468;40.116;18.296;2022-12-05T13:18:23;20.10;71.70
51811;DHT22;52468;40.116;18.296;2022-12-05T13:20:52;20.10;71.70
51811;DHT22;52468;40.116;18.296;2022-12-05T13:23:22;20.00;69.40
51811;DHT22;52468;40.116;18.296;2022-12-05T13:25:52;20.00;69.20
51811;DHT22;52468;40.116;18.296;2022-12-05T13:28:28;20.00;70.90
51811;DHT22;52468;40.116;18.296;2022-12-05T13:30:57;20.00;68.20
51811;DHT22;52468;40.116;18.296;2022-12-05T13:33:29;20.00;69.80
51811;DHT22;52468;40.116;18.296;2022-12-05T13:36:11;20.00;69.50
51811;DHT22;52468;40.116;18.296;2022-12-05T13:42:00;19.70;68.40
51811;DHT22;52468;40.116;18.296;2022-12-05T13:44:47;19.60;68.60
51811;DHT22;52468;40.116;18.296;2022-12-05T13:50:08;19.60;69.30
51811;DHT22;52468;40.116;18.296;2022-12-05T13:52:45;19.50;67.60
51811;DHT22;52468;40.116;18.296;2022-12-05T13:55:25;19.50;68.70
51811;DHT22;52468;40.116;18.296;2022-12-05T13:57:58;19.30;68.30
51811;DHT22;52468;40.116;18.296;2022-12-05T14:00:30;19.10;68.80
51811;DHT22;52468;40.116;18.296;2022-12-05T14:02:59;19.00;69.10
51811;DHT22;52468;40.116;18.296;2022-12-05T14:05:40;18.70;69.50
51811;DHT22;52468;40.116;18.296;2022-12-05T14:15:46;18.50;70.30
51811;DHT22;52468;40.116;18.296;2022-12-05T14:23:27;18.50;69.40
51811;DHT22;52468;40.116;18.296;2022-12-05T14:33:32;18.30;70.90
51811;DHT22;52468;40.116;18.296;2022-12-05T14:36:06;18.30;71.10
51811;DHT22;52468;40.116;18.296;2022-12-05T14:38:35;18.10;71.60
51811;DHT22;52468;40.116;18.296;2022-12-05T14:41:14;18.00;71.90
51811;DHT22;52468;40.116;18.296;2022-12-05T14:43:43;17.90;72.40
51811;DHT22;52468;40.116;18.296;2022-12-05T14:46:15;17.70;73.20
51811;DHT22;52468;40.116;18.296;2022-12-05T14:48:44;17.60;73.20
51811;DHT22;52468;40.116;18.296;2022-12-05T14:51:54;17.50;73.50
51811;DHT22;52468;40.116;18.296;2022-12-05T14:54:11;17.50;73.70
51811;DHT22;52468;40.116;18.296;2022-12-05T14:56:41;17.30;74.00
51811;DHT22;52468;40.116;18.296;2022-12-05T15:01:43;17.00;74.80
51811;DHT22;52468;40.116;18.296;2022-12-05T15:07:02;16.80;75.50
51811;DHT22;52468;40.116;18.296;2022-12-05T15:12:19;16.50;75.80
51811;DHT22;52468;40.116;18.296;2022-12-05T15:14:56;16.40;77.00
51811;DHT22;52468;40.116;18.296;2022-12-05T15:17:27;16.30;77.10
51811;DHT22;52468;40.116;18.296;2022-12-05T15:20:02;16.10;77.80
51811;DHT22;52468;40.116;18.296;2022-12-05T15:22:32;16.10;78.00
51811;DHT22;52468;40.116;18.296;2022-12-05T15:27:54;16.00;78.10
51811;DHT22;52468;40.116;18.296;2022-12-05T15:30:22;15.80;78.80
51811;DHT22;52468;40.116;18.296;2022-12-05T15:32:50;15.70;78.70
51811;DHT22;52468;40.116;18.296;2022-12-05T15:35:21;15.60;78.80
51811;DHT22;52468;40.116;18.296;2022-12-05T15:37:50;15.50;79.70
51811;DHT22;52468;40.116;18.296;2022-12-05T15:40:21;15.50;79.50
51811;DHT22;52468;40.116;18.296;2022-12-05T15:42:50;15.40;79.70
51811;DHT22;52468;40.116;18.296;2022-12-05T15:45:25;15.30;79.90
51811;DHT22;52468;40.116;18.296;2022-12-05T15:47:53;15.20;80.00
51811;DHT22;52468;40.116;18.296;2022-12-05T15:50:31;15.10;80.50
51811;DHT22;52468;40.116;18.296;2022-12-05T15:53:43;15.10;80.60
51811;DHT22;52468;40.116;18.296;2022-12-05T15:59:11;15.00;80.70
51811;DHT22;52468;40.116;18.296;2022-12-05T16:01:34;14.90;80.70
51811;DHT22;52468;40.116;18.296;2022-12-05T16:06:49;14.70;80.10
51811;DHT22;52468;40.116;18.296;2022-12-05T16:09:18;14.60;80.10
51811;DHT22;52468;40.116;18.296;2022-12-05T16:11:50;14.50;80.80
51811;DHT22;52468;40.116;18.296;2022-12-05T16:14:18;14.50;81.30
51811;DHT22;52468;40.116;18.296;2022-12-05T16:16:57;14.50;81.80
51811;DHT22;52468;40.116;18.296;2022-12-05T16:19:28;14.50;82.20
51811;DHT22;52468;40.116;18.296;2022-12-05T16:24:27;14.40;82.10
51811;DHT22;52468;40.116;18.296;2022-12-05T16:27:00;14.40;82.00
51811;DHT22;52468;40.116;18.296;2022-12-05T16:29:30;14.40;82.10
51811;DHT22;52468;40.116;18.296;2022-12-05T16:32:03;14.30;82.40
51811;DHT22;52468;40.116;18.296;2022-12-05T16:34:34;14.30;82.40
51811;DHT22;52468;40.116;18.296;2022-12-05T16:37:02;14.40;82.40
51811;DHT22;52468;40.116;18.296;2022-12-05T16:39:29;14.30;82.10
51811;DHT22;52468;40.116;18.296;2022-12-05T16:41:57;14.40;82.30
51811;DHT22;52468;40.116;18.296;2022-12-05T16:47:24;14.40;82.50
51811;DHT22;52468;40.116;18.296;2022-12-05T16:49:52;14.30;82.20
51811;DHT22;52468;40.116;18.296;2022-12-05T16:52:20;14.20;81.90
51811;DHT22;52468;40.116;18.296;2022-12-05T16:54:47;14.20;81.70
51811;DHT22;52468;40.116;18.296;2022-12-05T16:57:16;14.10;81.90
51811;DHT22;52468;40.116;18.296;2022-12-05T16:59:44;14.10;82.20
51811;DHT22;52468;40.116;18.296;2022-12-05T17:02:16;14.10;82.10
51811;DHT22;52468;40.116;18.296;2022-12-05T17:04:44;14.10;82.10
51811;DHT22;52468;40.116;18.296;2022-12-05T17:07:13;14.10;82.10
51811;DHT22;52468;40.116;18.296;2022-12-05T17:09:41;14.10;81.90
51811;DHT22;52468;40.116;18.296;2022-12-05T17:12:13;14.00;82.30
51811;DHT22;52468;40.116;18.296;2022-12-05T17:14:42;14.00;82.40
51811;DHT22;52468;40.116;18.296;2022-12-05T17:17:11;13.90;82.30
51811;DHT22;52468;40.116;18.296;2022-12-05T17:19:39;13.90;82.50
51811;DHT22;52468;40.116;18.296;2022-12-05T17:22:07;13.90;82.50
51811;DHT22;52468;40.116;18.296;2022-12-05T17:24:35;13.90;82.80
51811;DHT22;52468;40.116;18.296;2022-12-05T17:27:04;13.80;82.80
51811;DHT22;52468;40.116;18.296;2022-12-05T17:29:31;13.80;82.40
51811;DHT22;52468;40.116;18.296;2022-12-05T17:32:02;13.80;82.30
51811;DHT22;52468;40.116;18.296;2022-12-05T17:34:29;13.70;82.30
51811;DHT22;52468;40.116;18.296;2022-12-05T17:36:57;13.70;82.00
51811;DHT22;52468;40.116;18.296;2022-12-05T17:39:26;13.70;82.20
51811;DHT22;52468;40.116;18.296;2022-12-05T17:41:54;13.60;82.40
51811;DHT22;52468;40.116;18.296;2022-12-05T17:44:22;13.60;82.80
51811;DHT22;52468;40.116;18.296;2022-12-05T17:46:50;13.60;83.30
51811;DHT22;52468;40.116;18.296;2022-12-05T17:49:17;13.60;83.50
51811;DHT22;52468;40.116;18.296;2022-12-05T17:51:46;13.60;83.00
51811;DHT22;52468;40.116;18.296;2022-12-05T17:54:34;13.60;82.70
51811;DHT22;52468;40.116;18.296;2022-12-05T17:57:01;13.50;82.90
51811;DHT22;52468;40.116;18.296;2022-12-05T17:59:29;13.50;82.60
51811;DHT22;52468;40.116;18.296;2022-12-05T18:01:56;13.40;82.50
51811;DHT22;52468;40.116;18.296;2022-12-05T18:04:24;13.40;82.90
51811;DHT22;52468;40.116;18.296;2022-12-05T18:06:52;13.40;83.10
51811;DHT22;52468;40.116;18.296;2022-12-05T18:09:19;13.50;83.30
51811;DHT22;52468;40.116;18.296;2022-12-05T18:11:47;13.50;83.10
51811;DHT22;52468;40.116;18.296;2022-12-05T18:14:15;13.40;82.60
51811;DHT22;52468;40.116;18.296;2022-12-05T18:16:42;13.40;82.50
51811;DHT22;52468;40.116;18.296;2022-12-05T18:19:10;13.50;82.60
51811;DHT22;52468;40.116;18.296;2022-12-05T18:21:38;13.30;82.80
51811;DHT22;52468;40.116;18.296;2022-12-05T18:24:05;13.30;83.10
51811;DHT22;52468;40.116;18.296;2022-12-05T18:26:33;13.30;83.50
51811;DHT22;52468;40.116;18.296;2022-12-05T18:29:01;13.30;83.70
51811;DHT22;52468;40.116;18.296;2022-12-05T18:31:29;13.40;83.90
51811;DHT22;52468;40.116;18.296;2022-12-05T18:33:57;13.30;84.00
51811;DHT22;52468;40.116;18.296;2022-12-05T18:36:25;13.30;83.40
51811;DHT22;52468;40.116;18.296;2022-12-05T18:38:53;13.30;83.60